<?xml version="1.0" encoding="utf-8" standalone="no" ?>
<gpx xmlns="http://www.topografix.com/GPX/1/1" creator="Tracker" version="1.1" xmlns:xsi="http://www.w3.org/2001/XMLSchema-instance" xsi:schemaLocation="http://www.topografix.com/GPX/1/1 http://www.topografix.com/GPX/1/1/gpx.xsd">
  <metadata>
    <time>2010-03-10T16:41:24Z</time>
  </metadata>
  <trk>
    <trkseg>
      <trkpt lat="50.011610" lon="8.103100">
        <time>2010-03-10T14:27:05Z</time>
      </trkpt>
      <trkpt lat="50.011610" lon="8.103100">
        <time>2010-03-10T14:27:05Z</time>
      </trkpt>
      <trkpt lat="50.011610" lon="8.103100">
        <time>2010-03-10T14:27:07Z</time>
      </trkpt>
      <trkpt lat="50.011610" lon="8.103100">
        <time>2010-03-10T14:27:09Z</time>
      </trkpt>
      <trkpt lat="50.011610" lon="8.103100">
        <time>2010-03-10T14:27:38Z</time>
      </trkpt>
      <trkpt lat="50.011630" lon="8.103250">
        <time>2010-03-10T14:27:42Z</time>
      </trkpt>
      <trkpt lat="50.011630" lon="8.103250">
        <time>2010-03-10T14:27:50Z</time>
      </trkpt>
      <trkpt lat="50.011630" lon="8.103250">
        <time>2010-03-10T14:27:51Z</time>
      </trkpt>
    </trkseg>
    <trkpt lat="50.013330" lon="8.106880">
      <time>2010-03-10T14:31:50Z</time>
    </trkpt>
    <trkseg>
      <trkpt lat="50.013330" lon="8.106880">
        <time>2010-03-10T14:27:52Z</time>
      </trkpt>
    </trkseg>
    <trkseg>
      <trkpt lat="50.029690" lon="8.166210">
        <time>2010-03-10T14:27:52Z</time>
      </trkpt>
      <trkpt lat="50.029690" lon="8.166210">
        <time>2010-03-10T14:27:59Z</time>
      </trkpt>
      <trkpt lat="50.029730" lon="8.166310">
        <time>2010-03-10T14:28:03Z</time>
      </trkpt>
      <trkpt lat="50.029730" lon="8.166310">
        <time>2010-03-10T14:28:11Z</time>
      </trkpt>
      <trkpt lat="50.029710" lon="8.166290">
        <time>2010-03-10T14:28:15Z</time>
      </trkpt>
      <trkpt lat="50.029650" lon="8.166180">
        <time>2010-03-10T14:28:24Z</time>
      </trkpt>
      <trkpt lat="50.029650" lon="8.166180">
        <time>2010-03-10T14:28:28Z</time>
      </trkpt>
      <trkpt lat="50.029590" lon="8.166080">
        <time>2010-03-10T14:28:32Z</time>
      </trkpt>
      <trkpt lat="50.029590" lon="8.166080">
        <time>2010-03-10T14:28:41Z</time>
      </trkpt>
      <trkpt lat="50.029540" lon="8.165860">
        <time>2010-03-10T14:28:45Z</time>
      </trkpt>
      <trkpt lat="50.029470" lon="8.165710">
        <time>2010-03-10T14:28:53Z</time>
      </trkpt>
      <trkpt lat="50.029370" lon="8.165580">
        <time>2010-03-10T14:28:57Z</time>
      </trkpt>
      <trkpt lat="50.029290" lon="8.165430">
        <time>2010-03-10T14:29:05Z</time>
      </trkpt>
      <trkpt lat="50.029170" lon="8.165240">
        <time>2010-03-10T14:29:19Z</time>
      </trkpt>
      <trkpt lat="50.029070" lon="8.165150">
        <time>2010-03-10T14:29:29Z</time>
      </trkpt>
      <trkpt lat="50.028990" lon="8.165030">
        <time>2010-03-10T14:29:40Z</time>
      </trkpt>
      <trkpt lat="50.028830" lon="8.164830">
        <time>2010-03-10T14:29:57Z</time>
      </trkpt>
      <trkpt lat="50.028790" lon="8.164790">
        <time>2010-03-10T14:29:59Z</time>
      </trkpt>
      <trkpt lat="50.028680" lon="8.164620">
        <time>2010-03-10T14:30:11Z</time>
      </trkpt>
      <trkpt lat="50.028480" lon="8.164360">
        <time>2010-03-10T14:30:28Z</time>
      </trkpt>
      <trkpt lat="50.028300" lon="8.164060">
        <time>2010-03-10T14:30:48Z</time>
      </trkpt>
      <trkpt lat="50.028220" lon="8.163850">
        <time>2010-03-10T14:30:56Z</time>
      </trkpt>
      <trkpt lat="50.028150" lon="8.163650">
        <time>2010-03-10T14:31:07Z</time>
      </trkpt>
      <trkpt lat="50.027970" lon="8.163220">
        <time>2010-03-10T14:31:29Z</time>
      </trkpt>
      <trkpt lat="50.027880" lon="8.163030">
        <time>2010-03-10T14:31:42Z</time>
      </trkpt>
      <trkpt lat="50.027770" lon="8.162750">
        <time>2010-03-10T14:31:55Z</time>
      </trkpt>
      <trkpt lat="50.027610" lon="8.162260">
        <time>2010-03-10T14:32:20Z</time>
      </trkpt>
      <trkpt lat="50.027480" lon="8.161850">
        <time>2010-03-10T14:32:43Z</time>
      </trkpt>
      <trkpt lat="50.027400" lon="8.161550">
        <time>2010-03-10T14:32:56Z</time>
      </trkpt>
      <trkpt lat="50.027150" lon="8.160840">
        <time>2010-03-10T14:33:25Z</time>
      </trkpt>
      <trkpt lat="50.027080" lon="8.160690">
        <time>2010-03-10T14:33:36Z</time>
      </trkpt>
      <trkpt lat="50.027070" lon="8.160670">
        <time>2010-03-10T14:33:41Z</time>
      </trkpt>
      <trkpt lat="50.027030" lon="8.160580">
        <time>2010-03-10T14:33:48Z</time>
      </trkpt>
      <trkpt lat="50.026960" lon="8.160410">
        <time>2010-03-10T14:33:58Z</time>
      </trkpt>
      <trkpt lat="50.026860" lon="8.160150">
        <time>2010-03-10T14:34:14Z</time>
      </trkpt>
      <trkpt lat="50.026840" lon="8.160130">
        <time>2010-03-10T14:34:15Z</time>
      </trkpt>
      <trkpt lat="50.026830" lon="8.160090">
        <time>2010-03-10T14:34:20Z</time>
      </trkpt>
      <trkpt lat="50.026760" lon="8.159960">
        <time>2010-03-10T14:34:29Z</time>
      </trkpt>
      <trkpt lat="50.026620" lon="8.159770">
        <time>2010-03-10T14:34:41Z</time>
      </trkpt>
      <trkpt lat="50.026340" lon="8.159320">
        <time>2010-03-10T14:35:07Z</time>
      </trkpt>
      <trkpt lat="50.026240" lon="8.159080">
        <time>2010-03-10T14:35:19Z</time>
      </trkpt>
      <trkpt lat="50.026180" lon="8.158950">
        <time>2010-03-10T14:35:23Z</time>
      </trkpt>
      <trkpt lat="50.026070" lon="8.158650">
        <time>2010-03-10T14:35:36Z</time>
      </trkpt>
      <trkpt lat="50.025940" lon="8.158370">
        <time>2010-03-10T14:35:52Z</time>
      </trkpt>
      <trkpt lat="50.025810" lon="8.158160">
        <time>2010-03-10T14:36:02Z</time>
      </trkpt>
      <trkpt lat="50.025800" lon="8.158140">
        <time>2010-03-10T14:36:07Z</time>
      </trkpt>
      <trkpt lat="50.025780" lon="8.158090">
        <time>2010-03-10T14:36:09Z</time>
      </trkpt>
      <trkpt lat="50.025680" lon="8.157920">
        <time>2010-03-10T14:36:26Z</time>
      </trkpt>
      <trkpt lat="50.025660" lon="8.157880">
        <time>2010-03-10T14:36:28Z</time>
      </trkpt>
      <trkpt lat="50.025560" lon="8.157750">
        <time>2010-03-10T14:36:39Z</time>
      </trkpt>
      <trkpt lat="50.025440" lon="8.157560">
        <time>2010-03-10T14:36:51Z</time>
      </trkpt>
      <trkpt lat="50.025320" lon="8.157390">
        <time>2010-03-10T14:37:05Z</time>
      </trkpt>
      <trkpt lat="50.025270" lon="8.157320">
        <time>2010-03-10T14:37:14Z</time>
      </trkpt>
      <trkpt lat="50.025210" lon="8.157240">
        <time>2010-03-10T14:37:22Z</time>
      </trkpt>
      <trkpt lat="50.025160" lon="8.157110">
        <time>2010-03-10T14:37:28Z</time>
      </trkpt>
      <trkpt lat="50.025010" lon="8.156830">
        <time>2010-03-10T14:37:44Z</time>
      </trkpt>
      <trkpt lat="50.024930" lon="8.156640">
        <time>2010-03-10T14:37:57Z</time>
      </trkpt>
      <trkpt lat="50.024940" lon="8.156490">
        <time>2010-03-10T14:38:05Z</time>
      </trkpt>
      <trkpt lat="50.025010" lon="8.156340">
        <time>2010-03-10T14:38:13Z</time>
      </trkpt>
      <trkpt lat="50.025190" lon="8.155800">
        <time>2010-03-10T14:38:42Z</time>
      </trkpt>
      <trkpt lat="50.025200" lon="8.155630">
        <time>2010-03-10T14:38:51Z</time>
      </trkpt>
      <trkpt lat="50.025260" lon="8.155330">
        <time>2010-03-10T14:39:06Z</time>
      </trkpt>
      <trkpt lat="50.025320" lon="8.155310">
        <time>2010-03-10T14:39:11Z</time>
      </trkpt>
      <trkpt lat="50.025370" lon="8.155240">
        <time>2010-03-10T14:39:17Z</time>
      </trkpt>
      <trkpt lat="50.025390" lon="8.155110">
        <time>2010-03-10T14:39:25Z</time>
      </trkpt>
      <trkpt lat="50.025400" lon="8.154920">
        <time>2010-03-10T14:39:41Z</time>
      </trkpt>
      <trkpt lat="50.025370" lon="8.154680">
        <time>2010-03-10T14:39:58Z</time>
      </trkpt>
      <trkpt lat="50.025360" lon="8.154620">
        <time>2010-03-10T14:40:00Z</time>
      </trkpt>
      <trkpt lat="50.025350" lon="8.154510">
        <time>2010-03-10T14:40:08Z</time>
      </trkpt>
      <trkpt lat="50.025330" lon="8.154430">
        <time>2010-03-10T14:40:17Z</time>
      </trkpt>
      <trkpt lat="50.025310" lon="8.154360">
        <time>2010-03-10T14:40:20Z</time>
      </trkpt>
      <trkpt lat="50.025230" lon="8.154080">
        <time>2010-03-10T14:40:27Z</time>
      </trkpt>
      <trkpt lat="50.025030" lon="8.153440">
        <time>2010-03-10T14:40:49Z</time>
      </trkpt>
      <trkpt lat="50.025000" lon="8.153180">
        <time>2010-03-10T14:41:00Z</time>
      </trkpt>
      <trkpt lat="50.024980" lon="8.153050">
        <time>2010-03-10T14:41:10Z</time>
      </trkpt>
      <trkpt lat="50.024970" lon="8.152990">
        <time>2010-03-10T14:41:13Z</time>
      </trkpt>
      <trkpt lat="50.024930" lon="8.152640">
        <time>2010-03-10T14:41:31Z</time>
      </trkpt>
      <trkpt lat="50.024780" lon="8.151850">
        <time>2010-03-10T14:42:11Z</time>
      </trkpt>
      <trkpt lat="50.024750" lon="8.151660">
        <time>2010-03-10T14:42:25Z</time>
      </trkpt>
      <trkpt lat="50.024710" lon="8.151440">
        <time>2010-03-10T14:42:36Z</time>
      </trkpt>
      <trkpt lat="50.024640" lon="8.151100">
        <time>2010-03-10T14:42:51Z</time>
      </trkpt>
      <trkpt lat="50.024560" lon="8.150610">
        <time>2010-03-10T14:43:15Z</time>
      </trkpt>
      <trkpt lat="50.024520" lon="8.150350">
        <time>2010-03-10T14:43:30Z</time>
      </trkpt>
      <trkpt lat="50.024420" lon="8.149900">
        <time>2010-03-10T14:43:58Z</time>
      </trkpt>
      <trkpt lat="50.024350" lon="8.149700">
        <time>2010-03-10T14:44:07Z</time>
      </trkpt>
      <trkpt lat="50.024260" lon="8.149340">
        <time>2010-03-10T14:44:20Z</time>
      </trkpt>
      <trkpt lat="50.024200" lon="8.149080">
        <time>2010-03-10T14:44:32Z</time>
      </trkpt>
      <trkpt lat="50.024180" lon="8.148930">
        <time>2010-03-10T14:44:43Z</time>
      </trkpt>
      <trkpt lat="50.024180" lon="8.148930">
        <time>2010-03-10T14:44:47Z</time>
      </trkpt>
      <trkpt lat="50.024140" lon="8.148760">
        <time>2010-03-10T14:44:52Z</time>
      </trkpt>
      <trkpt lat="50.024130" lon="8.148700">
        <time>2010-03-10T14:45:01Z</time>
      </trkpt>
      <trkpt lat="50.024130" lon="8.148700">
        <time>2010-03-10T14:45:05Z</time>
      </trkpt>
      <trkpt lat="50.024150" lon="8.148630">
        <time>2010-03-10T14:45:08Z</time>
      </trkpt>
      <trkpt lat="50.024150" lon="8.148630">
        <time>2010-03-10T14:45:19Z</time>
      </trkpt>
      <trkpt lat="50.024110" lon="8.148720">
        <time>2010-03-10T14:45:24Z</time>
      </trkpt>
      <trkpt lat="50.024110" lon="8.148720">
        <time>2010-03-10T14:45:30Z</time>
      </trkpt>
      <trkpt lat="50.024110" lon="8.148720">
        <time>2010-03-10T14:45:32Z</time>
      </trkpt>
      <trkpt lat="50.024110" lon="8.148720">
        <time>2010-03-10T14:45:34Z</time>
      </trkpt>
      <trkpt lat="50.024040" lon="8.148780">
        <time>2010-03-10T14:45:37Z</time>
      </trkpt>
      <trkpt lat="50.024040" lon="8.148780">
        <time>2010-03-10T14:45:46Z</time>
      </trkpt>
      <trkpt lat="50.024030" lon="8.148800">
        <time>2010-03-10T14:45:48Z</time>
      </trkpt>
      <trkpt lat="50.023970" lon="8.148590">
        <time>2010-03-10T14:45:53Z</time>
      </trkpt>
      <trkpt lat="50.023910" lon="8.148250">
        <time>2010-03-10T14:46:07Z</time>
      </trkpt>
      <trkpt lat="50.023890" lon="8.148160">
        <time>2010-03-10T14:46:16Z</time>
      </trkpt>
      <trkpt lat="50.023870" lon="8.148030">
        <time>2010-03-10T14:46:21Z</time>
      </trkpt>
      <trkpt lat="50.023760" lon="8.147640">
        <time>2010-03-10T14:46:37Z</time>
      </trkpt>
      <trkpt lat="50.023670" lon="8.147300">
        <time>2010-03-10T14:46:53Z</time>
      </trkpt>
      <trkpt lat="50.023610" lon="8.147130">
        <time>2010-03-10T14:47:08Z</time>
      </trkpt>
      <trkpt lat="50.023610" lon="8.147130">
        <time>2010-03-10T14:47:12Z</time>
      </trkpt>
      <trkpt lat="50.023530" lon="8.146960">
        <time>2010-03-10T14:47:17Z</time>
      </trkpt>
      <trkpt lat="50.023420" lon="8.146720">
        <time>2010-03-10T14:47:32Z</time>
      </trkpt>
      <trkpt lat="50.023420" lon="8.146720">
        <time>2010-03-10T14:47:38Z</time>
      </trkpt>
      <trkpt lat="50.023420" lon="8.146720">
        <time>2010-03-10T14:47:43Z</time>
      </trkpt>
      <trkpt lat="50.023420" lon="8.146720">
        <time>2010-03-10T14:47:57Z</time>
      </trkpt>
      <trkpt lat="50.023540" lon="8.146720">
        <time>2010-03-10T14:48:01Z</time>
      </trkpt>
      <trkpt lat="50.023640" lon="8.146680">
        <time>2010-03-10T14:48:06Z</time>
      </trkpt>
      <trkpt lat="50.023750" lon="8.146640">
        <time>2010-03-10T14:48:14Z</time>
      </trkpt>
      <trkpt lat="50.023850" lon="8.146570">
        <time>2010-03-10T14:48:25Z</time>
      </trkpt>
      <trkpt lat="50.023850" lon="8.146570">
        <time>2010-03-10T14:48:29Z</time>
      </trkpt>
      <trkpt lat="50.023870" lon="8.146550">
        <time>2010-03-10T14:48:33Z</time>
      </trkpt>
      <trkpt lat="50.023910" lon="8.146550">
        <time>2010-03-10T14:48:41Z</time>
      </trkpt>
      <trkpt lat="50.023990" lon="8.146530">
        <time>2010-03-10T14:48:49Z</time>
      </trkpt>
      <trkpt lat="50.024050" lon="8.146510">
        <time>2010-03-10T14:48:53Z</time>
      </trkpt>
      <trkpt lat="50.024130" lon="8.146440">
        <time>2010-03-10T14:49:01Z</time>
      </trkpt>
      <trkpt lat="50.024220" lon="8.146400">
        <time>2010-03-10T14:49:13Z</time>
      </trkpt>
      <trkpt lat="50.024370" lon="8.146360">
        <time>2010-03-10T14:49:28Z</time>
      </trkpt>
      <trkpt lat="50.024370" lon="8.146360">
        <time>2010-03-10T14:49:32Z</time>
      </trkpt>
      <trkpt lat="50.024470" lon="8.146340">
        <time>2010-03-10T14:49:36Z</time>
      </trkpt>
      <trkpt lat="50.024470" lon="8.146340">
        <time>2010-03-10T14:49:44Z</time>
      </trkpt>
      <trkpt lat="50.024470" lon="8.146340">
        <time>2010-03-10T14:49:48Z</time>
      </trkpt>
      <trkpt lat="50.024570" lon="8.146360">
        <time>2010-03-10T14:49:51Z</time>
      </trkpt>
      <trkpt lat="50.024560" lon="8.146340">
        <time>2010-03-10T14:49:55Z</time>
      </trkpt>
      <trkpt lat="50.024560" lon="8.146340">
        <time>2010-03-10T14:49:59Z</time>
      </trkpt>
      <trkpt lat="50.024560" lon="8.146340">
        <time>2010-03-10T14:50:03Z</time>
      </trkpt>
      <trkpt lat="50.024560" lon="8.146340">
        <time>2010-03-10T14:50:28Z</time>
      </trkpt>
      <trkpt lat="50.024530" lon="8.146420">
        <time>2010-03-10T14:50:32Z</time>
      </trkpt>
      <trkpt lat="50.024530" lon="8.146420">
        <time>2010-03-10T14:50:39Z</time>
      </trkpt>
      <trkpt lat="50.024530" lon="8.146420">
        <time>2010-03-10T14:50:41Z</time>
      </trkpt>
      <trkpt lat="50.024490" lon="8.146490">
        <time>2010-03-10T14:50:44Z</time>
      </trkpt>
      <trkpt lat="50.024440" lon="8.146460">
        <time>2010-03-10T14:50:51Z</time>
      </trkpt>
      <trkpt lat="50.024440" lon="8.146440">
        <time>2010-03-10T14:50:55Z</time>
      </trkpt>
      <trkpt lat="50.024450" lon="8.146360">
        <time>2010-03-10T14:51:03Z</time>
      </trkpt>
      <trkpt lat="50.024420" lon="8.146340">
        <time>2010-03-10T14:51:14Z</time>
      </trkpt>
      <trkpt lat="50.024370" lon="8.146400">
        <time>2010-03-10T14:51:18Z</time>
      </trkpt>
      <trkpt lat="50.024310" lon="8.146420">
        <time>2010-03-10T14:51:29Z</time>
      </trkpt>
      <trkpt lat="50.024310" lon="8.146420">
        <time>2010-03-10T14:51:33Z</time>
      </trkpt>
      <trkpt lat="50.024090" lon="8.146570">
        <time>2010-03-10T14:51:38Z</time>
      </trkpt>
      <trkpt lat="50.024090" lon="8.146570">
        <time>2010-03-10T14:51:44Z</time>
      </trkpt>
      <trkpt lat="50.024000" lon="8.146640">
        <time>2010-03-10T14:51:48Z</time>
      </trkpt>
      <trkpt lat="50.024000" lon="8.146640">
        <time>2010-03-10T14:51:58Z</time>
      </trkpt>
      <trkpt lat="50.023860" lon="8.146790">
        <time>2010-03-10T14:52:03Z</time>
      </trkpt>
      <trkpt lat="50.023770" lon="8.146770">
        <time>2010-03-10T14:52:12Z</time>
      </trkpt>
      <trkpt lat="50.023770" lon="8.146770">
        <time>2010-03-10T14:52:17Z</time>
      </trkpt>
      <trkpt lat="50.023770" lon="8.146770">
        <time>2010-03-10T14:52:22Z</time>
      </trkpt>
      <trkpt lat="50.023770" lon="8.146770">
        <time>2010-03-10T14:52:30Z</time>
      </trkpt>
      <trkpt lat="50.023500" lon="8.146810">
        <time>2010-03-10T14:52:39Z</time>
      </trkpt>
      <trkpt lat="50.023500" lon="8.146810">
        <time>2010-03-10T14:52:43Z</time>
      </trkpt>
      <trkpt lat="50.023500" lon="8.146810">
        <time>2010-03-10T14:52:48Z</time>
      </trkpt>
      <trkpt lat="50.023330" lon="8.146960">
        <time>2010-03-10T14:52:52Z</time>
      </trkpt>
      <trkpt lat="50.023300" lon="8.147000">
        <time>2010-03-10T14:52:54Z</time>
      </trkpt>
      <trkpt lat="50.023260" lon="8.147040">
        <time>2010-03-10T14:52:59Z</time>
      </trkpt>
      <trkpt lat="50.023170" lon="8.147130">
        <time>2010-03-10T14:53:10Z</time>
      </trkpt>
      <trkpt lat="50.023080" lon="8.147260">
        <time>2010-03-10T14:53:17Z</time>
      </trkpt>
      <trkpt lat="50.023040" lon="8.147300">
        <time>2010-03-10T14:53:23Z</time>
      </trkpt>
      <trkpt lat="50.022940" lon="8.147430">
        <time>2010-03-10T14:53:27Z</time>
      </trkpt>
      <trkpt lat="50.022940" lon="8.147430">
        <time>2010-03-10T14:53:35Z</time>
      </trkpt>
      <trkpt lat="50.022840" lon="8.147560">
        <time>2010-03-10T14:53:38Z</time>
      </trkpt>
      <trkpt lat="50.022730" lon="8.147710">
        <time>2010-03-10T14:53:46Z</time>
      </trkpt>
      <trkpt lat="50.022470" lon="8.148010">
        <time>2010-03-10T14:54:07Z</time>
      </trkpt>
      <trkpt lat="50.022300" lon="8.148180">
        <time>2010-03-10T14:54:22Z</time>
      </trkpt>
      <trkpt lat="50.022150" lon="8.148350">
        <time>2010-03-10T14:54:38Z</time>
      </trkpt>
      <trkpt lat="50.022070" lon="8.148400">
        <time>2010-03-10T14:54:48Z</time>
      </trkpt>
      <trkpt lat="50.021970" lon="8.148480">
        <time>2010-03-10T14:54:59Z</time>
      </trkpt>
      <trkpt lat="50.021880" lon="8.148550">
        <time>2010-03-10T14:55:05Z</time>
      </trkpt>
      <trkpt lat="50.021730" lon="8.148610">
        <time>2010-03-10T14:55:17Z</time>
      </trkpt>
      <trkpt lat="50.021650" lon="8.148550">
        <time>2010-03-10T14:55:24Z</time>
      </trkpt>
      <trkpt lat="50.021610" lon="8.148440">
        <time>2010-03-10T14:55:28Z</time>
      </trkpt>
      <trkpt lat="50.021540" lon="8.148250">
        <time>2010-03-10T14:55:39Z</time>
      </trkpt>
      <trkpt lat="50.021400" lon="8.147970">
        <time>2010-03-10T14:55:58Z</time>
      </trkpt>
      <trkpt lat="50.021330" lon="8.147750">
        <time>2010-03-10T14:56:07Z</time>
      </trkpt>
      <trkpt lat="50.021230" lon="8.147600">
        <time>2010-03-10T14:56:17Z</time>
      </trkpt>
      <trkpt lat="50.021100" lon="8.147390">
        <time>2010-03-10T14:56:27Z</time>
      </trkpt>
      <trkpt lat="50.020990" lon="8.147240">
        <time>2010-03-10T14:56:38Z</time>
      </trkpt>
      <trkpt lat="50.020900" lon="8.147070">
        <time>2010-03-10T14:56:52Z</time>
      </trkpt>
      <trkpt lat="50.020820" lon="8.146960">
        <time>2010-03-10T14:56:58Z</time>
      </trkpt>
      <trkpt lat="50.020690" lon="8.146700">
        <time>2010-03-10T14:57:11Z</time>
      </trkpt>
      <trkpt lat="50.020610" lon="8.146550">
        <time>2010-03-10T14:57:24Z</time>
      </trkpt>
      <trkpt lat="50.020610" lon="8.146550">
        <time>2010-03-10T14:57:28Z</time>
      </trkpt>
      <trkpt lat="50.020550" lon="8.146400">
        <time>2010-03-10T14:57:31Z</time>
      </trkpt>
      <trkpt lat="50.020490" lon="8.146210">
        <time>2010-03-10T14:57:35Z</time>
      </trkpt>
      <trkpt lat="50.020350" lon="8.145860">
        <time>2010-03-10T14:57:47Z</time>
      </trkpt>
      <trkpt lat="50.020270" lon="8.145760">
        <time>2010-03-10T14:57:56Z</time>
      </trkpt>
      <trkpt lat="50.020140" lon="8.145480">
        <time>2010-03-10T14:58:16Z</time>
      </trkpt>
      <trkpt lat="50.020040" lon="8.145240">
        <time>2010-03-10T14:58:29Z</time>
      </trkpt>
      <trkpt lat="50.019340" lon="8.143420">
        <time>2010-03-10T15:00:12Z</time>
      </trkpt>
      <trkpt lat="50.019310" lon="8.143270">
        <time>2010-03-10T15:00:23Z</time>
      </trkpt>
      <trkpt lat="50.019310" lon="8.143200">
        <time>2010-03-10T15:00:25Z</time>
      </trkpt>
      <trkpt lat="50.019270" lon="8.143030">
        <time>2010-03-10T15:00:33Z</time>
      </trkpt>
      <trkpt lat="50.019120" lon="8.142450">
        <time>2010-03-10T15:01:02Z</time>
      </trkpt>
      <trkpt lat="50.019060" lon="8.142220">
        <time>2010-03-10T15:01:16Z</time>
      </trkpt>
      <trkpt lat="50.019050" lon="8.142150">
        <time>2010-03-10T15:01:18Z</time>
      </trkpt>
      <trkpt lat="50.018970" lon="8.141850">
        <time>2010-03-10T15:01:31Z</time>
      </trkpt>
      <trkpt lat="50.018930" lon="8.141680">
        <time>2010-03-10T15:01:42Z</time>
      </trkpt>
      <trkpt lat="50.018880" lon="8.141420">
        <time>2010-03-10T15:01:57Z</time>
      </trkpt>
      <trkpt lat="50.018680" lon="8.140540">
        <time>2010-03-10T15:02:44Z</time>
      </trkpt>
      <trkpt lat="50.018550" lon="8.140200">
        <time>2010-03-10T15:03:03Z</time>
      </trkpt>
      <trkpt lat="50.018500" lon="8.140050">
        <time>2010-03-10T15:03:15Z</time>
      </trkpt>
      <trkpt lat="50.018450" lon="8.139920">
        <time>2010-03-10T15:03:22Z</time>
      </trkpt>
      <trkpt lat="50.018330" lon="8.139510">
        <time>2010-03-10T15:03:43Z</time>
      </trkpt>
      <trkpt lat="50.018140" lon="8.139020">
        <time>2010-03-10T15:04:11Z</time>
      </trkpt>
      <trkpt lat="50.018050" lon="8.138780">
        <time>2010-03-10T15:04:27Z</time>
      </trkpt>
      <trkpt lat="50.017960" lon="8.138530">
        <time>2010-03-10T15:04:40Z</time>
      </trkpt>
      <trkpt lat="50.017750" lon="8.138100">
        <time>2010-03-10T15:05:04Z</time>
      </trkpt>
      <trkpt lat="50.017750" lon="8.138050">
        <time>2010-03-10T15:05:09Z</time>
      </trkpt>
      <trkpt lat="50.017720" lon="8.137990">
        <time>2010-03-10T15:05:15Z</time>
      </trkpt>
      <trkpt lat="50.017670" lon="8.137840">
        <time>2010-03-10T15:05:23Z</time>
      </trkpt>
      <trkpt lat="50.017590" lon="8.137620">
        <time>2010-03-10T15:05:37Z</time>
      </trkpt>
      <trkpt lat="50.017490" lon="8.137350">
        <time>2010-03-10T15:05:53Z</time>
      </trkpt>
      <trkpt lat="50.017460" lon="8.137280">
        <time>2010-03-10T15:05:55Z</time>
      </trkpt>
      <trkpt lat="50.017360" lon="8.137000">
        <time>2010-03-10T15:06:08Z</time>
      </trkpt>
      <trkpt lat="50.017280" lon="8.136770">
        <time>2010-03-10T15:06:22Z</time>
      </trkpt>
      <trkpt lat="50.017170" lon="8.136400">
        <time>2010-03-10T15:06:40Z</time>
      </trkpt>
      <trkpt lat="50.017100" lon="8.136140">
        <time>2010-03-10T15:06:55Z</time>
      </trkpt>
      <trkpt lat="50.017090" lon="8.136080">
        <time>2010-03-10T15:06:57Z</time>
      </trkpt>
      <trkpt lat="50.017000" lon="8.135840">
        <time>2010-03-10T15:07:09Z</time>
      </trkpt>
      <trkpt lat="50.016350" lon="8.133910">
        <time>2010-03-10T15:08:51Z</time>
      </trkpt>
      <trkpt lat="50.016320" lon="8.133780">
        <time>2010-03-10T15:09:01Z</time>
      </trkpt>
      <trkpt lat="50.016290" lon="8.133720">
        <time>2010-03-10T15:09:04Z</time>
      </trkpt>
      <trkpt lat="50.016200" lon="8.133290">
        <time>2010-03-10T15:09:23Z</time>
      </trkpt>
      <trkpt lat="50.015990" lon="8.132600">
        <time>2010-03-10T15:09:54Z</time>
      </trkpt>
      <trkpt lat="50.015940" lon="8.132350">
        <time>2010-03-10T15:10:08Z</time>
      </trkpt>
      <trkpt lat="50.015720" lon="8.131510">
        <time>2010-03-10T15:10:55Z</time>
      </trkpt>
      <trkpt lat="50.015640" lon="8.131190">
        <time>2010-03-10T15:11:11Z</time>
      </trkpt>
      <trkpt lat="50.015590" lon="8.130950">
        <time>2010-03-10T15:11:25Z</time>
      </trkpt>
      <trkpt lat="50.015580" lon="8.130890">
        <time>2010-03-10T15:11:27Z</time>
      </trkpt>
      <trkpt lat="50.015540" lon="8.130710">
        <time>2010-03-10T15:11:37Z</time>
      </trkpt>
      <trkpt lat="50.015450" lon="8.130260">
        <time>2010-03-10T15:12:01Z</time>
      </trkpt>
      <trkpt lat="50.015380" lon="8.129960">
        <time>2010-03-10T15:12:20Z</time>
      </trkpt>
      <trkpt lat="50.015350" lon="8.129730">
        <time>2010-03-10T15:12:31Z</time>
      </trkpt>
      <trkpt lat="50.015330" lon="8.129600">
        <time>2010-03-10T15:12:41Z</time>
      </trkpt>
      <trkpt lat="50.015310" lon="8.129510">
        <time>2010-03-10T15:12:45Z</time>
      </trkpt>
      <trkpt lat="50.015230" lon="8.129110">
        <time>2010-03-10T15:13:00Z</time>
      </trkpt>
      <trkpt lat="50.015190" lon="8.128870">
        <time>2010-03-10T15:13:12Z</time>
      </trkpt>
      <trkpt lat="50.015000" lon="8.127800">
        <time>2010-03-10T15:14:01Z</time>
      </trkpt>
      <trkpt lat="50.014950" lon="8.127580">
        <time>2010-03-10T15:14:14Z</time>
      </trkpt>
      <trkpt lat="50.014940" lon="8.127410">
        <time>2010-03-10T15:14:20Z</time>
      </trkpt>
      <trkpt lat="50.014900" lon="8.127130">
        <time>2010-03-10T15:14:34Z</time>
      </trkpt>
      <trkpt lat="50.014870" lon="8.126900">
        <time>2010-03-10T15:14:48Z</time>
      </trkpt>
      <trkpt lat="50.014800" lon="8.126620">
        <time>2010-03-10T15:15:02Z</time>
      </trkpt>
      <trkpt lat="50.014770" lon="8.126380">
        <time>2010-03-10T15:15:16Z</time>
      </trkpt>
      <trkpt lat="50.014720" lon="8.126080">
        <time>2010-03-10T15:15:31Z</time>
      </trkpt>
      <trkpt lat="50.014640" lon="8.125370">
        <time>2010-03-10T15:16:03Z</time>
      </trkpt>
      <trkpt lat="50.014610" lon="8.125070">
        <time>2010-03-10T15:16:19Z</time>
      </trkpt>
      <trkpt lat="50.014590" lon="8.124790">
        <time>2010-03-10T15:16:30Z</time>
      </trkpt>
      <trkpt lat="50.014580" lon="8.124530">
        <time>2010-03-10T15:16:44Z</time>
      </trkpt>
      <trkpt lat="50.014550" lon="8.124110">
        <time>2010-03-10T15:17:05Z</time>
      </trkpt>
      <trkpt lat="50.014450" lon="8.123420">
        <time>2010-03-10T15:17:41Z</time>
      </trkpt>
      <trkpt lat="50.014400" lon="8.123080">
        <time>2010-03-10T15:17:57Z</time>
      </trkpt>
      <trkpt lat="50.014340" lon="8.122780">
        <time>2010-03-10T15:18:13Z</time>
      </trkpt>
      <trkpt lat="50.014280" lon="8.122470">
        <time>2010-03-10T15:18:26Z</time>
      </trkpt>
      <trkpt lat="50.014190" lon="8.122070">
        <time>2010-03-10T15:18:40Z</time>
      </trkpt>
      <trkpt lat="50.014160" lon="8.121850">
        <time>2010-03-10T15:18:51Z</time>
      </trkpt>
      <trkpt lat="50.014110" lon="8.121640">
        <time>2010-03-10T15:19:05Z</time>
      </trkpt>
      <trkpt lat="50.014070" lon="8.121340">
        <time>2010-03-10T15:19:19Z</time>
      </trkpt>
      <trkpt lat="50.014110" lon="8.121100">
        <time>2010-03-10T15:19:27Z</time>
      </trkpt>
      <trkpt lat="50.014120" lon="8.120820">
        <time>2010-03-10T15:19:40Z</time>
      </trkpt>
      <trkpt lat="50.014110" lon="8.120690">
        <time>2010-03-10T15:19:50Z</time>
      </trkpt>
      <trkpt lat="50.014100" lon="8.120460">
        <time>2010-03-10T15:20:04Z</time>
      </trkpt>
      <trkpt lat="50.014070" lon="8.120200">
        <time>2010-03-10T15:20:15Z</time>
      </trkpt>
      <trkpt lat="50.014060" lon="8.119920">
        <time>2010-03-10T15:20:29Z</time>
      </trkpt>
      <trkpt lat="50.014000" lon="8.119450">
        <time>2010-03-10T15:20:51Z</time>
      </trkpt>
      <trkpt lat="50.013930" lon="8.118830">
        <time>2010-03-10T15:21:16Z</time>
      </trkpt>
      <trkpt lat="50.013930" lon="8.118480">
        <time>2010-03-10T15:21:32Z</time>
      </trkpt>
      <trkpt lat="50.013930" lon="8.118400">
        <time>2010-03-10T15:21:40Z</time>
      </trkpt>
      <trkpt lat="50.013930" lon="8.118310">
        <time>2010-03-10T15:21:43Z</time>
      </trkpt>
      <trkpt lat="50.013970" lon="8.117520">
        <time>2010-03-10T15:22:14Z</time>
      </trkpt>
      <trkpt lat="50.014000" lon="8.117070">
        <time>2010-03-10T15:22:34Z</time>
      </trkpt>
      <trkpt lat="50.014030" lon="8.116790">
        <time>2010-03-10T15:22:49Z</time>
      </trkpt>
      <trkpt lat="50.014080" lon="8.116490">
        <time>2010-03-10T15:23:03Z</time>
      </trkpt>
      <trkpt lat="50.014160" lon="8.115840">
        <time>2010-03-10T15:23:36Z</time>
      </trkpt>
      <trkpt lat="50.014200" lon="8.115590">
        <time>2010-03-10T15:23:51Z</time>
      </trkpt>
      <trkpt lat="50.014260" lon="8.115330">
        <time>2010-03-10T15:24:03Z</time>
      </trkpt>
      <trkpt lat="50.014320" lon="8.114960">
        <time>2010-03-10T15:24:22Z</time>
      </trkpt>
      <trkpt lat="50.014410" lon="8.114640">
        <time>2010-03-10T15:24:37Z</time>
      </trkpt>
      <trkpt lat="50.014440" lon="8.114410">
        <time>2010-03-10T15:24:50Z</time>
      </trkpt>
      <trkpt lat="50.014450" lon="8.114300">
        <time>2010-03-10T15:24:53Z</time>
      </trkpt>
      <trkpt lat="50.014480" lon="8.114040">
        <time>2010-03-10T15:25:04Z</time>
      </trkpt>
      <trkpt lat="50.014590" lon="8.113030">
        <time>2010-03-10T15:25:52Z</time>
      </trkpt>
      <trkpt lat="50.014620" lon="8.112710">
        <time>2010-03-10T15:26:09Z</time>
      </trkpt>
      <trkpt lat="50.014620" lon="8.112430">
        <time>2010-03-10T15:26:20Z</time>
      </trkpt>
      <trkpt lat="50.014640" lon="8.112110">
        <time>2010-03-10T15:26:36Z</time>
      </trkpt>
      <trkpt lat="50.014630" lon="8.111830">
        <time>2010-03-10T15:26:52Z</time>
      </trkpt>
      <trkpt lat="50.014640" lon="8.111620">
        <time>2010-03-10T15:27:00Z</time>
      </trkpt>
      <trkpt lat="50.014630" lon="8.111270">
        <time>2010-03-10T15:27:15Z</time>
      </trkpt>
      <trkpt lat="50.014620" lon="8.110890">
        <time>2010-03-10T15:27:34Z</time>
      </trkpt>
      <trkpt lat="50.014580" lon="8.110460">
        <time>2010-03-10T15:27:52Z</time>
      </trkpt>
      <trkpt lat="50.014520" lon="8.109880">
        <time>2010-03-10T15:28:19Z</time>
      </trkpt>
      <trkpt lat="50.014490" lon="8.109540">
        <time>2010-03-10T15:28:37Z</time>
      </trkpt>
      <trkpt lat="50.014440" lon="8.109240">
        <time>2010-03-10T15:28:50Z</time>
      </trkpt>
      <trkpt lat="50.014310" lon="8.108760">
        <time>2010-03-10T15:29:13Z</time>
      </trkpt>
      <trkpt lat="50.014250" lon="8.108380">
        <time>2010-03-10T15:29:29Z</time>
      </trkpt>
      <trkpt lat="50.014160" lon="8.107950">
        <time>2010-03-10T15:29:50Z</time>
      </trkpt>
      <trkpt lat="50.014110" lon="8.107560">
        <time>2010-03-10T15:30:11Z</time>
      </trkpt>
      <trkpt lat="50.014050" lon="8.107240">
        <time>2010-03-10T15:30:26Z</time>
      </trkpt>
      <trkpt lat="50.014040" lon="8.107110">
        <time>2010-03-10T15:30:37Z</time>
      </trkpt>
      <trkpt lat="50.014020" lon="8.106980">
        <time>2010-03-10T15:30:43Z</time>
      </trkpt>
      <trkpt lat="50.013790" lon="8.105970">
        <time>2010-03-10T15:31:35Z</time>
      </trkpt>
      <trkpt lat="50.013690" lon="8.105720">
        <time>2010-03-10T15:31:51Z</time>
      </trkpt>
      <trkpt lat="50.013540" lon="8.105480">
        <time>2010-03-10T15:32:06Z</time>
      </trkpt>
      <trkpt lat="50.013240" lon="8.104920">
        <time>2010-03-10T15:32:40Z</time>
      </trkpt>
      <trkpt lat="50.013120" lon="8.104600">
        <time>2010-03-10T15:32:56Z</time>
      </trkpt>
      <trkpt lat="50.012940" lon="8.103960">
        <time>2010-03-10T15:33:25Z</time>
      </trkpt>
      <trkpt lat="50.012840" lon="8.103680">
        <time>2010-03-10T15:33:41Z</time>
      </trkpt>
      <trkpt lat="50.012780" lon="8.103510">
        <time>2010-03-10T15:33:54Z</time>
      </trkpt>
      <trkpt lat="50.012730" lon="8.103380">
        <time>2010-03-10T15:34:00Z</time>
      </trkpt>
      <trkpt lat="50.012640" lon="8.103100">
        <time>2010-03-10T15:34:15Z</time>
      </trkpt>
      <trkpt lat="50.012560" lon="8.102800">
        <time>2010-03-10T15:34:32Z</time>
      </trkpt>
      <trkpt lat="50.012460" lon="8.102580">
        <time>2010-03-10T15:34:47Z</time>
      </trkpt>
      <trkpt lat="50.012360" lon="8.102430">
        <time>2010-03-10T15:34:56Z</time>
      </trkpt>
      <trkpt lat="50.012230" lon="8.102330">
        <time>2010-03-10T15:35:07Z</time>
      </trkpt>
      <trkpt lat="50.012040" lon="8.102240">
        <time>2010-03-10T15:35:19Z</time>
      </trkpt>
      <trkpt lat="50.011920" lon="8.102220">
        <time>2010-03-10T15:35:27Z</time>
      </trkpt>
      <trkpt lat="50.011830" lon="8.102300">
        <time>2010-03-10T15:35:34Z</time>
      </trkpt>
      <trkpt lat="50.011800" lon="8.102430">
        <time>2010-03-10T15:35:41Z</time>
      </trkpt>
      <trkpt lat="50.011790" lon="8.102670">
        <time>2010-03-10T15:35:50Z</time>
      </trkpt>
      <trkpt lat="50.011780" lon="8.102780">
        <time>2010-03-10T15:35:59Z</time>
      </trkpt>
      <trkpt lat="50.011780" lon="8.102780">
        <time>2010-03-10T15:36:00Z</time>
      </trkpt>
    </trkseg>
  </trk>
</gpx>
